sensor_id;sensor_type;location;lat;lon;timestamp;P1;durP1;ratioP1;P2;durP2;ratioP2
9117;SDS011;4594;50.994;7.126;2022-07-12T00:02:09;4.77;;;4.50;;
9117;SDS011;4594;50.994;7.126;2022-07-12T00:04:35;4.53;;;4.23;;
9117;SDS011;4594;50.994;7.126;2022-07-12T00:07:00;4.67;;;4.37;;
9117;SDS011;4594;50.994;7.126;2022-07-12T00:09:26;4.37;;;4.13;;
9117;SDS011;4594;50.994;7.126;2022-07-12T00:11:52;4.70;;;4.40;;
9117;SDS011;4594;50.994;7.126;2022-07-12T00:14:18;6.07;;;4.40;;
9117;SDS011;4594;50.994;7.126;2022-07-12T00:16:43;4.20;;;4.00;;
9117;SDS011;4594;50.994;7.126;2022-07-12T00:19:09;4.57;;;4.27;;
9117;SDS011;4594;50.994;7.126;2022-07-12T00:21:35;4.53;;;4.30;;
9117;SDS011;4594;50.994;7.126;2022-07-12T00:24:01;4.87;;;4.57;;
9117;SDS011;4594;50.994;7.126;2022-07-12T00:26:26;6.33;;;5.63;;
9117;SDS011;4594;50.994;7.126;2022-07-12T00:28:52;5.40;;;5.07;;
9117;SDS011;4594;50.994;7.126;2022-07-12T00:31:18;5.57;;;5.17;;
9117;SDS011;4594;50.994;7.126;2022-07-12T00:33:45;5.23;;;4.93;;
9117;SDS011;4594;50.994;7.126;2022-07-12T00:36:11;5.27;;;4.97;;
9117;SDS011;4594;50.994;7.126;2022-07-12T00:38:37;5.70;;;5.30;;
9117;SDS011;4594;50.994;7.126;2022-07-12T00:41:03;6.23;;;5.67;;
9117;SDS011;4594;50.994;7.126;2022-07-12T00:43:29;5.60;;;5.20;;
9117;SDS011;4594;50.994;7.126;2022-07-12T00:45:55;5.53;;;5.17;;
9117;SDS011;4594;50.994;7.126;2022-07-12T00:48:22;5.40;;;5.00;;
9117;SDS011;4594;50.994;7.126;2022-07-12T00:50:49;5.40;;;5.00;;
9117;SDS011;4594;50.994;7.126;2022-07-12T00:53:15;5.53;;;5.10;;
9117;SDS011;4594;50.994;7.126;2022-07-12T00:55:43;5.53;;;5.17;;
9117;SDS011;4594;50.994;7.126;2022-07-12T00:58:09;5.17;;;4.87;;
9117;SDS011;4594;50.994;7.126;2022-07-12T01:00:34;5.00;;;4.70;;
9117;SDS011;4594;50.994;7.126;2022-07-12T01:03:01;5.93;;;5.10;;
9117;SDS011;4594;50.994;7.126;2022-07-12T01:05:28;5.10;;;4.57;;
9117;SDS011;4594;50.994;7.126;2022-07-12T01:07:55;5.10;;;4.70;;
9117;SDS011;4594;50.994;7.126;2022-07-12T01:10:22;5.30;;;4.90;;
9117;SDS011;4594;50.994;7.126;2022-07-12T01:12:48;5.50;;;5.10;;
9117;SDS011;4594;50.994;7.126;2022-07-12T01:15:15;4.80;;;4.50;;
9117;SDS011;4594;50.994;7.126;2022-07-12T01:17:41;4.80;;;4.60;;
9117;SDS011;4594;50.994;7.126;2022-07-12T01:20:10;5.17;;;4.87;;
9117;SDS011;4594;50.994;7.126;2022-07-12T01:22:38;4.63;;;4.33;;
9117;SDS011;4594;50.994;7.126;2022-07-12T01:27:37;4.70;;;4.50;;
9117;SDS011;4594;50.994;7.126;2022-07-12T01:30:03;5.33;;;4.90;;
9117;SDS011;4594;50.994;7.126;2022-07-12T01:32:30;5.00;;;4.70;;
9117;SDS011;4594;50.994;7.126;2022-07-12T01:34:57;4.73;;;4.50;;
9117;SDS011;4594;50.994;7.126;2022-07-12T01:37:29;5.23;;;4.93;;
9117;SDS011;4594;50.994;7.126;2022-07-12T01:40:10;4.47;;;4.27;;
9117;SDS011;4594;50.994;7.126;2022-07-12T01:42:38;5.00;;;4.70;;
9117;SDS011;4594;50.994;7.126;2022-07-12T01:45:05;4.73;;;4.47;;
9117;SDS011;4594;50.994;7.126;2022-07-12T01:47:33;5.10;;;4.80;;
9117;SDS011;4594;50.994;7.126;2022-07-12T01:50:00;4.57;;;4.23;;
9117;SDS011;4594;50.994;7.126;2022-07-12T01:52:27;4.63;;;4.33;;
9117;SDS011;4594;50.994;7.126;2022-07-12T01:54:53;4.73;;;4.53;;
9117;SDS011;4594;50.994;7.126;2022-07-12T01:57:20;4.50;;;4.30;;
9117;SDS011;4594;50.994;7.126;2022-07-12T01:59:46;4.80;;;4.50;;
9117;SDS011;4594;50.994;7.126;2022-07-12T02:02:13;4.83;;;4.53;;
9117;SDS011;4594;50.994;7.126;2022-07-12T02:04:39;4.23;;;4.00;;
9117;SDS011;4594;50.994;7.126;2022-07-12T02:07:04;4.73;;;4.43;;
9117;SDS011;4594;50.994;7.126;2022-07-12T02:09:30;4.90;;;4.60;;
9117;SDS011;4594;50.994;7.126;2022-07-12T02:11:57;5.13;;;4.80;;
9117;SDS011;4594;50.994;7.126;2022-07-12T02:14:23;4.77;;;4.47;;
9117;SDS011;4594;50.994;7.126;2022-07-12T02:16:49;5.10;;;4.70;;
9117;SDS011;4594;50.994;7.126;2022-07-12T02:19:15;4.73;;;4.43;;
9117;SDS011;4594;50.994;7.126;2022-07-12T02:21:41;4.40;;;4.20;;
9117;SDS011;4594;50.994;7.126;2022-07-12T02:24:07;4.27;;;4.07;;
9117;SDS011;4594;50.994;7.126;2022-07-12T02:26:34;5.10;;;4.70;;
9117;SDS011;4594;50.994;7.126;2022-07-12T02:29:01;4.13;;;3.93;;
9117;SDS011;4594;50.994;7.126;2022-07-12T02:31:28;4.00;;;3.70;;
9117;SDS011;4594;50.994;7.126;2022-07-12T02:33:54;4.50;;;4.20;;
9117;SDS011;4594;50.994;7.126;2022-07-12T02:36:20;5.33;;;5.00;;
9117;SDS011;4594;50.994;7.126;2022-07-12T02:38:46;5.20;;;4.80;;
9117;SDS011;4594;50.994;7.126;2022-07-12T02:41:12;5.20;;;4.90;;
9117;SDS011;4594;50.994;7.126;2022-07-12T02:43:38;5.10;;;4.80;;
9117;SDS011;4594;50.994;7.126;2022-07-12T02:46:08;5.23;;;4.70;;
9117;SDS011;4594;50.994;7.126;2022-07-12T02:48:36;5.63;;;5.23;;
9117;SDS011;4594;50.994;7.126;2022-07-12T02:51:04;5.23;;;4.93;;
9117;SDS011;4594;50.994;7.126;2022-07-12T02:53:32;5.80;;;5.40;;
9117;SDS011;4594;50.994;7.126;2022-07-12T02:56:00;5.83;;;5.43;;
9117;SDS011;4594;50.994;7.126;2022-07-12T02:58:26;6.07;;;5.57;;
9117;SDS011;4594;50.994;7.126;2022-07-12T03:00:52;5.60;;;5.17;;
9117;SDS011;4594;50.994;7.126;2022-07-12T03:03:18;6.23;;;5.63;;
9117;SDS011;4594;50.994;7.126;2022-07-12T03:05:44;4.83;;;4.53;;
9117;SDS011;4594;50.994;7.126;2022-07-12T03:08:10;4.77;;;4.47;;
9117;SDS011;4594;50.994;7.126;2022-07-12T03:10:36;5.20;;;4.90;;
9117;SDS011;4594;50.994;7.126;2022-07-12T03:13:03;4.90;;;4.60;;
9117;SDS011;4594;50.994;7.126;2022-07-12T03:15:29;5.67;;;5.27;;
9117;SDS011;4594;50.994;7.126;2022-07-12T03:17:56;5.17;;;4.87;;
9117;SDS011;4594;50.994;7.126;2022-07-12T03:20:23;5.57;;;5.07;;
9117;SDS011;4594;50.994;7.126;2022-07-12T03:22:49;4.90;;;4.67;;
9117;SDS011;4594;50.994;7.126;2022-07-12T03:25:16;5.00;;;4.70;;
9117;SDS011;4594;50.994;7.126;2022-07-12T03:27:43;5.10;;;4.70;;
9117;SDS011;4594;50.994;7.126;2022-07-12T03:30:09;4.77;;;4.47;;
9117;SDS011;4594;50.994;7.126;2022-07-12T03:32:36;4.47;;;4.27;;
9117;SDS011;4594;50.994;7.126;2022-07-12T03:35:02;5.20;;;4.17;;
9117;SDS011;4594;50.994;7.126;2022-07-12T03:40:15;4.60;;;4.30;;
9117;SDS011;4594;50.994;7.126;2022-07-12T03:42:43;4.40;;;4.20;;
9117;SDS011;4594;50.994;7.126;2022-07-12T03:45:10;4.50;;;4.30;;
9117;SDS011;4594;50.994;7.126;2022-07-12T03:47:38;4.53;;;4.23;;
9117;SDS011;4594;50.994;7.126;2022-07-12T03:50:05;4.37;;;4.17;;
9117;SDS011;4594;50.994;7.126;2022-07-12T03:52:35;4.67;;;4.37;;
9117;SDS011;4594;50.994;7.126;2022-07-12T03:55:01;4.53;;;4.23;;
9117;SDS011;4594;50.994;7.126;2022-07-12T03:57:28;4.70;;;4.40;;
9117;SDS011;4594;50.994;7.126;2022-07-12T03:59:55;4.43;;;4.13;;
9117;SDS011;4594;50.994;7.126;2022-07-12T04:02:21;4.47;;;4.17;;
9117;SDS011;4594;50.994;7.126;2022-07-12T04:04:47;4.27;;;4.07;;
9117;SDS011;4594;50.994;7.126;2022-07-12T04:07:13;4.43;;;4.13;;
9117;SDS011;4594;50.994;7.126;2022-07-12T04:09:39;4.33;;;4.00;;
9117;SDS011;4594;50.994;7.126;2022-07-12T04:12:05;4.40;;;4.10;;
9117;SDS011;4594;50.994;7.126;2022-07-12T04:14:30;4.60;;;4.30;;
9117;SDS011;4594;50.994;7.126;2022-07-12T04:16:56;4.20;;;3.90;;
9117;SDS011;4594;50.994;7.126;2022-07-12T04:19:22;4.70;;;4.40;;
9117;SDS011;4594;50.994;7.126;2022-07-12T04:21:52;4.37;;;4.17;;
9117;SDS011;4594;50.994;7.126;2022-07-12T04:24:20;4.80;;;4.17;;
9117;SDS011;4594;50.994;7.126;2022-07-12T04:26:47;4.83;;;4.43;;
9117;SDS011;4594;50.994;7.126;2022-07-12T04:29:14;5.80;;;4.47;;
9117;SDS011;4594;50.994;7.126;2022-07-12T04:31:41;4.80;;;4.50;;
9117;SDS011;4594;50.994;7.126;2022-07-12T04:34:07;4.63;;;4.33;;
9117;SDS011;4594;50.994;7.126;2022-07-12T04:36:32;4.83;;;4.53;;
9117;SDS011;4594;50.994;7.126;2022-07-12T04:38:59;4.10;;;3.90;;
9117;SDS011;4594;50.994;7.126;2022-07-12T04:41:24;4.60;;;4.40;;
9117;SDS011;4594;50.994;7.126;2022-07-12T04:43:50;4.30;;;4.10;;
9117;SDS011;4594;50.994;7.126;2022-07-12T04:46:16;4.40;;;4.10;;
9117;SDS011;4594;50.994;7.126;2022-07-12T04:48:41;4.60;;;4.30;;
9117;SDS011;4594;50.994;7.126;2022-07-12T04:51:07;4.53;;;4.27;;
9117;SDS011;4594;50.994;7.126;2022-07-12T04:53:33;5.63;;;4.40;;
9117;SDS011;4594;50.994;7.126;2022-07-12T04:55:59;5.23;;;4.83;;
9117;SDS011;4594;50.994;7.126;2022-07-12T04:58:24;4.20;;;4.00;;
9117;SDS011;4594;50.994;7.126;2022-07-12T05:00:50;4.77;;;4.47;;
9117;SDS011;4594;50.994;7.126;2022-07-12T05:03:16;4.83;;;4.37;;
9117;SDS011;4594;50.994;7.126;2022-07-12T05:05:42;6.90;;;4.60;;
9117;SDS011;4594;50.994;7.126;2022-07-12T05:08:08;4.97;;;4.50;;
9117;SDS011;4594;50.994;7.126;2022-07-12T05:10:34;4.43;;;4.23;;
9117;SDS011;4594;50.994;7.126;2022-07-12T05:13:00;4.30;;;4.10;;
9117;SDS011;4594;50.994;7.126;2022-07-12T05:15:26;3.90;;;3.53;;
9117;SDS011;4594;50.994;7.126;2022-07-12T05:17:52;4.23;;;3.93;;
9117;SDS011;4594;50.994;7.126;2022-07-12T05:20:17;4.23;;;3.93;;
9117;SDS011;4594;50.994;7.126;2022-07-12T05:22:44;3.53;;;3.40;;
9117;SDS011;4594;50.994;7.126;2022-07-12T05:25:10;3.43;;;3.33;;
9117;SDS011;4594;50.994;7.126;2022-07-12T05:27:35;3.60;;;3.30;;
9117;SDS011;4594;50.994;7.126;2022-07-12T05:30:02;3.07;;;2.97;;
9117;SDS011;4594;50.994;7.126;2022-07-12T05:32:29;3.83;;;3.33;;
9117;SDS011;4594;50.994;7.126;2022-07-12T05:34:55;4.57;;;3.10;;
9117;SDS011;4594;50.994;7.126;2022-07-12T05:37:21;3.47;;;3.17;;
9117;SDS011;4594;50.994;7.126;2022-07-12T05:39:50;3.20;;;3.10;;
9117;SDS011;4594;50.994;7.126;2022-07-12T05:42:17;2.97;;;2.87;;
9117;SDS011;4594;50.994;7.126;2022-07-12T05:44:43;3.10;;;2.80;;
9117;SDS011;4594;50.994;7.126;2022-07-12T05:47:08;2.83;;;2.73;;
9117;SDS011;4594;50.994;7.126;2022-07-12T05:49:34;3.13;;;3.03;;
9117;SDS011;4594;50.994;7.126;2022-07-12T05:52:00;3.10;;;3.00;;
9117;SDS011;4594;50.994;7.126;2022-07-12T05:54:44;3.47;;;3.27;;
9117;SDS011;4594;50.994;7.126;2022-07-12T05:57:10;3.53;;;3.33;;
9117;SDS011;4594;50.994;7.126;2022-07-12T05:59:36;3.43;;;3.17;;
9117;SDS011;4594;50.994;7.126;2022-07-12T06:02:02;2.83;;;2.73;;
9117;SDS011;4594;50.994;7.126;2022-07-12T06:04:29;3.63;;;3.33;;
9117;SDS011;4594;50.994;7.126;2022-07-12T06:06:55;3.73;;;3.53;;
9117;SDS011;4594;50.994;7.126;2022-07-12T06:09:21;3.93;;;3.63;;
9117;SDS011;4594;50.994;7.126;2022-07-12T06:11:47;3.60;;;3.40;;
9117;SDS011;4594;50.994;7.126;2022-07-12T06:14:13;3.53;;;3.33;;
9117;SDS011;4594;50.994;7.126;2022-07-12T06:16:38;3.60;;;3.40;;
9117;SDS011;4594;50.994;7.126;2022-07-12T06:19:04;4.10;;;3.87;;
9117;SDS011;4594;50.994;7.126;2022-07-12T06:21:30;4.23;;;3.53;;
9117;SDS011;4594;50.994;7.126;2022-07-12T06:23:55;3.43;;;3.13;;
9117;SDS011;4594;50.994;7.126;2022-07-12T06:26:21;3.50;;;3.30;;
9117;SDS011;4594;50.994;7.126;2022-07-12T06:28:47;3.33;;;3.17;;
9117;SDS011;4594;50.994;7.126;2022-07-12T06:31:13;3.17;;;3.07;;
9117;SDS011;4594;50.994;7.126;2022-07-12T06:33:38;4.70;;;3.30;;
9117;SDS011;4594;50.994;7.126;2022-07-12T06:36:04;3.00;;;2.80;;
9117;SDS011;4594;50.994;7.126;2022-07-12T06:38:30;2.83;;;2.63;;
9117;SDS011;4594;50.994;7.126;2022-07-12T06:40:56;2.87;;;2.73;;
9117;SDS011;4594;50.994;7.126;2022-07-12T06:43:22;2.53;;;2.43;;
9117;SDS011;4594;50.994;7.126;2022-07-12T06:45:47;3.03;;;2.83;;
9117;SDS011;4594;50.994;7.126;2022-07-12T06:48:13;2.73;;;2.57;;
9117;SDS011;4594;50.994;7.126;2022-07-12T06:50:39;3.23;;;3.10;;
9117;SDS011;4594;50.994;7.126;2022-07-12T06:53:04;2.90;;;2.80;;
9117;SDS011;4594;50.994;7.126;2022-07-12T06:55:30;2.90;;;2.70;;
9117;SDS011;4594;50.994;7.126;2022-07-12T06:57:56;2.73;;;2.53;;
9117;SDS011;4594;50.994;7.126;2022-07-12T07:00:22;2.20;;;2.10;;
9117;SDS011;4594;50.994;7.126;2022-07-12T07:02:48;1.70;;;1.70;;
9117;SDS011;4594;50.994;7.126;2022-07-12T07:05:14;2.23;;;2.07;;
9117;SDS011;4594;50.994;7.126;2022-07-12T07:07:40;1.93;;;1.90;;
9117;SDS011;4594;50.994;7.126;2022-07-12T07:10:06;1.97;;;1.87;;
9117;SDS011;4594;50.994;7.126;2022-07-12T07:12:33;2.10;;;2.00;;
9117;SDS011;4594;50.994;7.126;2022-07-12T07:14:58;2.97;;;1.80;;
9117;SDS011;4594;50.994;7.126;2022-07-12T07:17:24;2.13;;;2.00;;
9117;SDS011;4594;50.994;7.126;2022-07-12T07:19:50;1.90;;;1.80;;
9117;SDS011;4594;50.994;7.126;2022-07-12T07:22:15;1.93;;;1.63;;
9117;SDS011;4594;50.994;7.126;2022-07-12T07:24:41;1.70;;;1.60;;
9117;SDS011;4594;50.994;7.126;2022-07-12T07:27:07;1.90;;;1.70;;
9117;SDS011;4594;50.994;7.126;2022-07-12T07:29:33;1.40;;;1.40;;
9117;SDS011;4594;50.994;7.126;2022-07-12T07:32:17;1.43;;;1.43;;
9117;SDS011;4594;50.994;7.126;2022-07-12T07:34:43;2.30;;;1.73;;
9117;SDS011;4594;50.994;7.126;2022-07-12T07:37:10;1.87;;;1.70;;
9117;SDS011;4594;50.994;7.126;2022-07-12T07:39:36;1.47;;;1.47;;
9117;SDS011;4594;50.994;7.126;2022-07-12T07:42:01;1.47;;;1.40;;
9117;SDS011;4594;50.994;7.126;2022-07-12T07:44:27;1.40;;;1.40;;
9117;SDS011;4594;50.994;7.126;2022-07-12T07:46:53;1.30;;;1.30;;
9117;SDS011;4594;50.994;7.126;2022-07-12T07:49:19;1.40;;;1.40;;
9117;SDS011;4594;50.994;7.126;2022-07-12T07:51:45;1.13;;;1.13;;
9117;SDS011;4594;50.994;7.126;2022-07-12T07:54:10;1.57;;;1.50;;
9117;SDS011;4594;50.994;7.126;2022-07-12T07:56:36;1.60;;;1.60;;
9117;SDS011;4594;50.994;7.126;2022-07-12T07:59:02;1.20;;;1.20;;
9117;SDS011;4594;50.994;7.126;2022-07-12T08:01:27;1.00;;;1.00;;
9117;SDS011;4594;50.994;7.126;2022-07-12T08:04:13;1.17;;;1.17;;
9117;SDS011;4594;50.994;7.126;2022-07-12T08:06:40;1.20;;;1.20;;
9117;SDS011;4594;50.994;7.126;2022-07-12T08:09:07;1.10;;;1.10;;
9117;SDS011;4594;50.994;7.126;2022-07-12T08:11:34;1.00;;;1.00;;
9117;SDS011;4594;50.994;7.126;2022-07-12T08:14:01;1.30;;;1.30;;
9117;SDS011;4594;50.994;7.126;2022-07-12T08:16:28;1.20;;;1.20;;
9117;SDS011;4594;50.994;7.126;2022-07-12T08:18:54;1.23;;;1.23;;
9117;SDS011;4594;50.994;7.126;2022-07-12T08:21:20;1.30;;;1.20;;
9117;SDS011;4594;50.994;7.126;2022-07-12T08:23:46;1.10;;;1.10;;
9117;SDS011;4594;50.994;7.126;2022-07-12T08:26:12;1.00;;;1.00;;
9117;SDS011;4594;50.994;7.126;2022-07-12T08:28:37;0.80;;;0.80;;
9117;SDS011;4594;50.994;7.126;2022-07-12T08:31:03;0.93;;;0.83;;
9117;SDS011;4594;50.994;7.126;2022-07-12T08:33:29;0.90;;;0.90;;
9117;SDS011;4594;50.994;7.126;2022-07-12T08:35:54;0.80;;;0.80;;
9117;SDS011;4594;50.994;7.126;2022-07-12T08:38:20;0.70;;;0.70;;
9117;SDS011;4594;50.994;7.126;2022-07-12T08:40:46;0.50;;;0.50;;
9117;SDS011;4594;50.994;7.126;2022-07-12T08:43:12;0.80;;;0.80;;
9117;SDS011;4594;50.994;7.126;2022-07-12T08:45:38;0.85;;;0.85;;
9117;SDS011;4594;50.994;7.126;2022-07-12T08:48:05;1.80;;;0.93;;
9117;SDS011;4594;50.994;7.126;2022-07-12T08:50:32;0.80;;;0.80;;
9117;SDS011;4594;50.994;7.126;2022-07-12T08:52:58;0.50;;;0.50;;
9117;SDS011;4594;50.994;7.126;2022-07-12T08:55:25;0.80;;;0.80;;
9117;SDS011;4594;50.994;7.126;2022-07-12T08:57:59;1.23;;;0.70;;
9117;SDS011;4594;50.994;7.126;2022-07-12T09:00:30;0.50;;;0.45;;
9117;SDS011;4594;50.994;7.126;2022-07-12T09:02:58;0.70;;;0.70;;
9117;SDS011;4594;50.994;7.126;2022-07-12T09:05:28;1.52;;;0.68;;
9117;SDS011;4594;50.994;7.126;2022-07-12T09:08:08;0.60;;;0.60;;
9117;SDS011;4594;50.994;7.126;2022-07-12T09:10:36;0.73;;;0.73;;
9117;SDS011;4594;50.994;7.126;2022-07-12T09:13:44;0.60;;;0.57;;
9117;SDS011;4594;50.994;7.126;2022-07-12T09:16:19;0.68;;;0.68;;
9117;SDS011;4594;50.994;7.126;2022-07-12T09:18:48;0.60;;;0.60;;
9117;SDS011;4594;50.994;7.126;2022-07-12T09:21:49;0.50;;;0.50;;
9117;SDS011;4594;50.994;7.126;2022-07-12T09:24:15;0.47;;;0.47;;
9117;SDS011;4594;50.994;7.126;2022-07-12T09:26:41;0.73;;;0.73;;
9117;SDS011;4594;50.994;7.126;2022-07-12T09:29:09;0.50;;;0.50;;
9117;SDS011;4594;50.994;7.126;2022-07-12T09:31:40;0.50;;;0.50;;
9117;SDS011;4594;50.994;7.126;2022-07-12T09:34:36;1.95;;;0.50;;
9117;SDS011;4594;50.994;7.126;2022-07-12T09:37:20;0.40;;;0.40;;
9117;SDS011;4594;50.994;7.126;2022-07-12T09:39:48;0.88;;;0.70;;
9117;SDS011;4594;50.994;7.126;2022-07-12T09:42:16;0.40;;;0.40;;
9117;SDS011;4594;50.994;7.126;2022-07-12T09:44:43;0.45;;;0.45;;
9117;SDS011;4594;50.994;7.126;2022-07-12T09:47:11;0.50;;;0.50;;
9117;SDS011;4594;50.994;7.126;2022-07-12T09:49:40;0.50;;;0.50;;
9117;SDS011;4594;50.994;7.126;2022-07-12T09:52:12;0.40;;;0.40;;
9117;SDS011;4594;50.994;7.126;2022-07-12T09:54:46;0.40;;;0.40;;
9117;SDS011;4594;50.994;7.126;2022-07-12T09:57:22;0.40;;;0.32;;
9117;SDS011;4594;50.994;7.126;2022-07-12T09:59:55;0.45;;;0.45;;
9117;SDS011;4594;50.994;7.126;2022-07-12T10:02:23;0.52;;;0.40;;
9117;SDS011;4594;50.994;7.126;2022-07-12T10:04:50;0.63;;;0.63;;
9117;SDS011;4594;50.994;7.126;2022-07-12T10:07:16;0.50;;;0.50;;
9117;SDS011;4594;50.994;7.126;2022-07-12T10:09:43;0.50;;;0.50;;
9117;SDS011;4594;50.994;7.126;2022-07-12T10:12:12;0.40;;;0.40;;
9117;SDS011;4594;50.994;7.126;2022-07-12T10:14:42;0.70;;;0.60;;
9117;SDS011;4594;50.994;7.126;2022-07-12T10:17:09;0.50;;;0.50;;
9117;SDS011;4594;50.994;7.126;2022-07-12T10:19:37;1.05;;;0.93;;
9117;SDS011;4594;50.994;7.126;2022-07-12T10:22:05;0.57;;;0.57;;
9117;SDS011;4594;50.994;7.126;2022-07-12T10:29:39;0.75;;;0.65;;
9117;SDS011;4594;50.994;7.126;2022-07-12T10:34:59;1.00;;;1.00;;
9117;SDS011;4594;50.994;7.126;2022-07-12T10:37:30;0.55;;;0.55;;
9117;SDS011;4594;50.994;7.126;2022-07-12T10:45:29;1.10;;;1.00;;
9117;SDS011;4594;50.994;7.126;2022-07-12T10:48:05;0.65;;;0.65;;
9117;SDS011;4594;50.994;7.126;2022-07-12T10:53:35;0.65;;;0.65;;
9117;SDS011;4594;50.994;7.126;2022-07-12T11:04:03;0.47;;;0.47;;
9117;SDS011;4594;50.994;7.126;2022-07-12T11:06:39;0.40;;;0.40;;
9117;SDS011;4594;50.994;7.126;2022-07-12T11:09:07;0.50;;;0.50;;
9117;SDS011;4594;50.994;7.126;2022-07-12T11:14:19;0.40;;;0.40;;
9117;SDS011;4594;50.994;7.126;2022-07-12T11:16:51;0.32;;;0.32;;
9117;SDS011;4594;50.994;7.126;2022-07-12T11:19:29;0.40;;;0.40;;
9117;SDS011;4594;50.994;7.126;2022-07-12T11:21:57;0.40;;;0.40;;
9117;SDS011;4594;50.994;7.126;2022-07-12T11:24:24;0.60;;;0.38;;
9117;SDS011;4594;50.994;7.126;2022-07-12T11:27:00;0.50;;;0.50;;
9117;SDS011;4594;50.994;7.126;2022-07-12T11:29:27;0.60;;;0.60;;
9117;SDS011;4594;50.994;7.126;2022-07-12T11:32:00;0.45;;;0.45;;
9117;SDS011;4594;50.994;7.126;2022-07-12T11:34:32;0.82;;;0.70;;
9117;SDS011;4594;50.994;7.126;2022-07-12T11:37:00;0.60;;;0.60;;
9117;SDS011;4594;50.994;7.126;2022-07-12T11:39:29;0.60;;;0.60;;
9117;SDS011;4594;50.994;7.126;2022-07-12T11:42:04;0.73;;;0.73;;
9117;SDS011;4594;50.994;7.126;2022-07-12T11:44:44;0.93;;;0.50;;
9117;SDS011;4594;50.994;7.126;2022-07-12T11:47:16;0.50;;;0.50;;
9117;SDS011;4594;50.994;7.126;2022-07-12T11:49:48;1.70;;;0.63;;
9117;SDS011;4594;50.994;7.126;2022-07-12T11:52:23;0.60;;;0.60;;
9117;SDS011;4594;50.994;7.126;2022-07-12T11:54:51;2.10;;;0.60;;
9117;SDS011;4594;50.994;7.126;2022-07-12T11:57:19;0.60;;;0.60;;
9117;SDS011;4594;50.994;7.126;2022-07-12T11:59:48;0.63;;;0.63;;
9117;SDS011;4594;50.994;7.126;2022-07-12T12:02:14;1.73;;;0.70;;
9117;SDS011;4594;50.994;7.126;2022-07-12T12:04:51;1.10;;;0.50;;
9117;SDS011;4594;50.994;7.126;2022-07-12T12:07:20;0.70;;;0.70;;
9117;SDS011;4594;50.994;7.126;2022-07-12T12:10:09;0.60;;;0.60;;
9117;SDS011;4594;50.994;7.126;2022-07-12T12:15:14;0.70;;;0.70;;
9117;SDS011;4594;50.994;7.126;2022-07-12T12:17:43;1.20;;;1.03;;
9117;SDS011;4594;50.994;7.126;2022-07-12T12:20:22;0.70;;;0.70;;
9117;SDS011;4594;50.994;7.126;2022-07-12T12:22:53;0.60;;;0.60;;
9117;SDS011;4594;50.994;7.126;2022-07-12T12:25:21;1.93;;;0.93;;
9117;SDS011;4594;50.994;7.126;2022-07-12T12:30:25;0.80;;;0.80;;
9117;SDS011;4594;50.994;7.126;2022-07-12T12:32:54;1.20;;;1.10;;
9117;SDS011;4594;50.994;7.126;2022-07-12T12:35:23;0.73;;;0.73;;
9117;SDS011;4594;50.994;7.126;2022-07-12T12:38:03;0.87;;;0.87;;
9117;SDS011;4594;50.994;7.126;2022-07-12T12:40:37;0.73;;;0.73;;
9117;SDS011;4594;50.994;7.126;2022-07-12T12:45:53;0.77;;;0.77;;
9117;SDS011;4594;50.994;7.126;2022-07-12T12:48:31;1.80;;;0.90;;
9117;SDS011;4594;50.994;7.126;2022-07-12T12:51:09;0.73;;;0.73;;
9117;SDS011;4594;50.994;7.126;2022-07-12T12:53:36;1.00;;;1.00;;
9117;SDS011;4594;50.994;7.126;2022-07-12T12:56:07;0.60;;;0.60;;
9117;SDS011;4594;50.994;7.126;2022-07-12T12:58:35;0.90;;;0.90;;
9117;SDS011;4594;50.994;7.126;2022-07-12T13:01:02;0.80;;;0.80;;
9117;SDS011;4594;50.994;7.126;2022-07-12T13:03:29;0.73;;;0.73;;
9117;SDS011;4594;50.994;7.126;2022-07-12T13:05:56;0.73;;;0.73;;
9117;SDS011;4594;50.994;7.126;2022-07-12T13:08:23;0.73;;;0.73;;
9117;SDS011;4594;50.994;7.126;2022-07-12T13:10:50;0.80;;;0.80;;
9117;SDS011;4594;50.994;7.126;2022-07-12T13:13:37;0.70;;;0.70;;
9117;SDS011;4594;50.994;7.126;2022-07-12T13:16:03;0.80;;;0.80;;
9117;SDS011;4594;50.994;7.126;2022-07-12T13:18:30;0.70;;;0.70;;
9117;SDS011;4594;50.994;7.126;2022-07-12T13:20:56;0.70;;;0.70;;
9117;SDS011;4594;50.994;7.126;2022-07-12T13:23:22;0.60;;;0.60;;
9117;SDS011;4594;50.994;7.126;2022-07-12T13:25:48;0.70;;;0.70;;
9117;SDS011;4594;50.994;7.126;2022-07-12T13:28:14;0.77;;;0.77;;
9117;SDS011;4594;50.994;7.126;2022-07-12T13:30:39;0.90;;;0.90;;
9117;SDS011;4594;50.994;7.126;2022-07-12T13:33:05;1.10;;;1.10;;
9117;SDS011;4594;50.994;7.126;2022-07-12T13:35:31;0.83;;;0.83;;
9117;SDS011;4594;50.994;7.126;2022-07-12T13:37:57;1.10;;;1.10;;
9117;SDS011;4594;50.994;7.126;2022-07-12T13:40:24;0.80;;;0.80;;
9117;SDS011;4594;50.994;7.126;2022-07-12T13:42:51;0.87;;;0.87;;
9117;SDS011;4594;50.994;7.126;2022-07-12T13:45:22;0.80;;;0.80;;
9117;SDS011;4594;50.994;7.126;2022-07-12T13:47:49;0.90;;;0.90;;
9117;SDS011;4594;50.994;7.126;2022-07-12T13:50:18;0.70;;;0.70;;
9117;SDS011;4594;50.994;7.126;2022-07-12T13:52:46;1.50;;;0.70;;
9117;SDS011;4594;50.994;7.126;2022-07-12T13:55:14;3.60;;;1.00;;
9117;SDS011;4594;50.994;7.126;2022-07-12T13:57:42;0.97;;;0.80;;
9117;SDS011;4594;50.994;7.126;2022-07-12T14:00:10;0.90;;;0.90;;
9117;SDS011;4594;50.994;7.126;2022-07-12T14:02:46;1.57;;;1.00;;
9117;SDS011;4594;50.994;7.126;2022-07-12T14:05:14;0.80;;;0.80;;
9117;SDS011;4594;50.994;7.126;2022-07-12T14:07:42;0.90;;;0.87;;
9117;SDS011;4594;50.994;7.126;2022-07-12T14:10:09;0.93;;;0.90;;
9117;SDS011;4594;50.994;7.126;2022-07-12T14:12:39;0.63;;;0.63;;
9117;SDS011;4594;50.994;7.126;2022-07-12T14:15:05;1.90;;;1.40;;
9117;SDS011;4594;50.994;7.126;2022-07-12T14:18:00;1.10;;;1.10;;
9117;SDS011;4594;50.994;7.126;2022-07-12T14:20:27;0.90;;;0.90;;
9117;SDS011;4594;50.994;7.126;2022-07-12T14:22:55;1.10;;;1.10;;
9117;SDS011;4594;50.994;7.126;2022-07-12T14:25:21;1.00;;;1.00;;
9117;SDS011;4594;50.994;7.126;2022-07-12T14:27:47;1.03;;;1.00;;
9117;SDS011;4594;50.994;7.126;2022-07-12T14:30:13;1.13;;;1.13;;
9117;SDS011;4594;50.994;7.126;2022-07-12T14:32:39;1.23;;;1.13;;
9117;SDS011;4594;50.994;7.126;2022-07-12T14:35:06;1.00;;;1.00;;
9117;SDS011;4594;50.994;7.126;2022-07-12T14:37:34;0.90;;;0.90;;
9117;SDS011;4594;50.994;7.126;2022-07-12T14:40:01;1.07;;;1.07;;
9117;SDS011;4594;50.994;7.126;2022-07-12T14:42:31;1.40;;;1.30;;
9117;SDS011;4594;50.994;7.126;2022-07-12T14:44:57;1.27;;;1.17;;
9117;SDS011;4594;50.994;7.126;2022-07-12T14:47:23;0.90;;;0.90;;
9117;SDS011;4594;50.994;7.126;2022-07-12T14:49:49;0.80;;;0.80;;
9117;SDS011;4594;50.994;7.126;2022-07-12T14:52:15;0.97;;;0.97;;
9117;SDS011;4594;50.994;7.126;2022-07-12T14:54:42;0.80;;;0.80;;
9117;SDS011;4594;50.994;7.126;2022-07-12T14:57:09;0.80;;;0.80;;
9117;SDS011;4594;50.994;7.126;2022-07-12T14:59:35;1.00;;;1.00;;
9117;SDS011;4594;50.994;7.126;2022-07-12T15:02:00;0.73;;;0.73;;
9117;SDS011;4594;50.994;7.126;2022-07-12T15:04:26;4.63;;;1.23;;
9117;SDS011;4594;50.994;7.126;2022-07-12T15:06:52;0.80;;;0.80;;
9117;SDS011;4594;50.994;7.126;2022-07-12T15:09:18;0.80;;;0.80;;
9117;SDS011;4594;50.994;7.126;2022-07-12T15:11:43;1.00;;;1.00;;
9117;SDS011;4594;50.994;7.126;2022-07-12T15:14:09;6.17;;;1.00;;
9117;SDS011;4594;50.994;7.126;2022-07-12T15:16:35;1.23;;;1.20;;
9117;SDS011;4594;50.994;7.126;2022-07-12T15:19:01;0.67;;;0.67;;
9117;SDS011;4594;50.994;7.126;2022-07-12T15:21:27;0.87;;;0.87;;
9117;SDS011;4594;50.994;7.126;2022-07-12T15:23:52;2.00;;;1.10;;
9117;SDS011;4594;50.994;7.126;2022-07-12T15:26:18;3.27;;;1.10;;
9117;SDS011;4594;50.994;7.126;2022-07-12T15:28:51;4.07;;;0.93;;
9117;SDS011;4594;50.994;7.126;2022-07-12T15:31:17;1.13;;;1.00;;
9117;SDS011;4594;50.994;7.126;2022-07-12T15:33:43;0.90;;;0.90;;
9117;SDS011;4594;50.994;7.126;2022-07-12T15:36:09;0.90;;;0.90;;
9117;SDS011;4594;50.994;7.126;2022-07-12T15:38:35;2.50;;;0.93;;
9117;SDS011;4594;50.994;7.126;2022-07-12T15:41:01;3.37;;;1.30;;
9117;SDS011;4594;50.994;7.126;2022-07-12T15:43:27;1.10;;;1.10;;
9117;SDS011;4594;50.994;7.126;2022-07-12T15:45:52;0.77;;;0.77;;
9117;SDS011;4594;50.994;7.126;2022-07-12T15:48:18;1.10;;;1.10;;
9117;SDS011;4594;50.994;7.126;2022-07-12T15:50:44;1.00;;;0.90;;
9117;SDS011;4594;50.994;7.126;2022-07-12T15:53:09;1.43;;;0.90;;
9117;SDS011;4594;50.994;7.126;2022-07-12T15:56:00;1.17;;;1.17;;
9117;SDS011;4594;50.994;7.126;2022-07-12T15:58:30;0.77;;;0.77;;
9117;SDS011;4594;50.994;7.126;2022-07-12T16:00:59;0.90;;;0.90;;